Time;durP1;ratioP1;P1;durP2;ratioP2;P2;SDS_P1;SDS_P2;PMS_P1;PMS_P2;Temp;Humidity;BMP_temperature;BMP_pressure;BME280_temperature;BME280_humidity;BME280_pressure;Samples;Min_cycle;Max_cycle;Signal;HPM_P1;HPM_P2
2021/06/30 00:02:18;;;;;;;6.07;3.95;;;18.90;85.40;;;;;;5069546;28;20024;-80
2021/06/30 00:04:44;;;;;;;5.00;3.90;;;18.90;85.60;;;;;;5053544;28;20388;-80
2021/06/30 00:07:10;;;;;;;4.60;3.53;;;18.90;85.70;;;;;;5053424;28;20086;-80
2021/06/30 00:09:36;;;;;;;7.78;4.65;;;18.90;85.90;;;;;;5053187;28;20037;-80
2021/06/30 00:12:03;;;;;;;6.05;3.65;;;18.90;85.90;;;;;;5052309;28;20025;-80
2021/06/30 00:14:29;;;;;;;4.65;4.25;;;18.90;85.90;;;;;;5053293;28;20025;-80
2021/06/30 00:16:55;;;;;;;4.65;4.25;;;18.80;85.90;;;;;;5066391;28;20437;-80
2021/06/30 00:19:21;;;;;;;5.85;4.95;;;18.80;86.10;;;;;;5073288;28;20029;-80
2021/06/30 00:21:47;;;;;;;4.90;4.40;;;18.80;86.00;;;;;;5071681;28;20025;-81
2021/06/30 00:24:13;;;;;;;4.45;4.05;;;18.70;86.20;;;;;;5069315;28;20043;-80
2021/06/30 00:26:39;;;;;;;5.10;4.70;;;18.80;86.40;;;;;;5073189;28;20029;-80
2021/06/30 00:29:06;;;;;;;7.45;4.55;;;18.70;86.30;;;;;;5066098;28;20037;-81
2021/06/30 00:31:32;;;;;;;7.78;5.10;;;18.80;86.50;;;;;;5056780;28;20036;-80
2021/06/30 00:34:04;;;;;;;5.28;3.85;;;18.70;86.60;;;;;;5072683;28;20024;-80
2021/06/30 00:36:34;;;;;;;5.72;3.03;;;18.70;86.50;;;;;;5076444;28;20161;-81
2021/06/30 00:39:02;;;;;;;3.40;3.10;;;18.70;86.30;;;;;;5074543;28;20040;-81
2021/06/30 00:41:28;;;;;;;4.00;3.50;;;18.70;86.10;;;;;;5076541;28;20029;-81
2021/06/30 00:43:53;;;;;;;3.50;3.03;;;18.70;86.30;;;;;;5075053;28;20489;-80
2021/06/30 00:46:27;;;;;;;3.58;2.80;;;18.60;86.20;;;;;;5065552;28;20029;-80
2021/06/30 00:48:53;;;;;;;3.63;3.20;;;18.60;86.20;;;;;;5075845;28;20110;-80
2021/06/30 00:51:19;;;;;;;4.78;2.80;;;18.50;86.30;;;;;;5076651;28;20051;-80
2021/06/30 00:53:45;;;;;;;2.55;2.35;;;18.50;86.40;;;;;;5057722;28;20473;-80
2021/06/30 00:56:11;;;;;;;3.10;2.72;;;18.50;86.50;;;;;;5055352;28;20044;-80
2021/06/30 00:58:38;;;;;;;3.55;2.40;;;18.50;86.40;;;;;;5056704;28;20037;-80
2021/06/30 01:01:04;;;;;;;4.78;2.17;;;18.40;86.50;;;;;;5056707;28;20055;-80
2021/06/30 01:03:29;;;;;;;3.47;2.20;;;18.40;86.50;;;;;;5055150;28;20442;-80
2021/06/30 01:05:55;;;;;;;2.10;2.00;;;18.40;86.70;;;;;;5055360;28;20047;-80
2021/06/30 01:08:21;;;;;;;1.83;1.60;;;18.40;87.00;;;;;;5038588;28;20029;-80
2021/06/30 01:10:46;;;;;;;3.30;1.80;;;18.30;86.90;;;;;;5056384;28;20025;-80
2021/06/30 01:13:12;;;;;;;5.00;2.00;;;18.30;87.00;;;;;;5056329;28;20082;-80
2021/06/30 01:15:54;;;;;;;2.38;1.65;;;18.30;87.00;;;;;;5056365;28;20029;-80
2021/06/30 01:18:25;;;;;;;3.20;1.35;;;18.30;87.20;;;;;;5056415;28;20075;-80
2021/06/30 01:20:52;;;;;;;3.28;1.13;;;18.20;87.10;;;;;;5056370;28;20382;-81
2021/06/30 01:23:19;;;;;;;2.30;1.10;;;18.20;87.30;;;;;;5068748;28;20025;-80
2021/06/30 01:25:45;;;;;;;3.10;1.45;;;18.20;87.20;;;;;;5074990;28;20033;-80
2021/06/30 01:28:12;;;;;;;1.70;1.27;;;18.20;87.20;;;;;;5076091;28;20039;-80
2021/06/30 01:30:39;;;;;;;1.25;1.00;;;18.20;87.30;;;;;;5075051;28;20489;-80
2021/06/30 01:33:05;;;;;;;0.90;0.80;;;18.20;87.30;;;;;;5076118;28;20546;-80
2021/06/30 01:35:31;;;;;;;1.42;1.10;;;18.20;87.10;;;;;;5076040;28;20051;-80
2021/06/30 01:37:56;;;;;;;3.45;0.98;;;18.10;87.10;;;;;;5074685;28;20021;-80
2021/06/30 01:40:23;;;;;;;1.45;1.10;;;18.10;87.40;;;;;;5058055;28;20028;-80
2021/06/30 01:42:50;;;;;;;2.53;1.05;;;18.10;87.40;;;;;;5094943;28;20518;-80
2021/06/30 01:45:16;;;;;;;1.55;1.10;;;18.10;87.30;;;;;;5094771;28;20027;-80
2021/06/30 01:47:42;;;;;;;1.17;1.08;;;18.10;87.50;;;;;;5079817;28;20013;-80
2021/06/30 01:50:09;;;;;;;3.65;1.17;;;18.00;88.10;;;;;;5061734;28;20024;-80
2021/06/30 01:52:36;;;;;;;1.40;0.93;;;18.00;87.60;;;;;;5074202;28;20032;-80
2021/06/30 01:55:04;;;;;;;4.47;0.95;;;18.00;87.60;;;;;;5075394;28;20048;-80
2021/06/30 01:57:30;;;;;;;2.28;0.70;;;18.00;87.70;;;;;;5081343;28;20047;-80
2021/06/30 01:59:56;;;;;;;2.17;1.08;;;18.00;87.60;;;;;;5077700;28;20064;-80
2021/06/30 02:02:25;;;;;;;3.40;1.05;;;18.00;87.60;;;;;;5094555;28;20407;-80
2021/06/30 02:05:02;;;;;;;4.00;0.75;;;17.90;87.50;;;;;;5095713;28;20020;-80
2021/06/30 02:07:27;;;;;;;0.73;0.60;;;17.90;87.50;;;;;;5095573;28;20024;-80
2021/06/30 02:09:53;;;;;;;3.10;1.10;;;17.90;87.50;;;;;;5075287;28;20037;-80
2021/06/30 02:12:19;;;;;;;1.15;1.02;;;17.80;87.50;;;;;;5073843;28;20496;-80
2021/06/30 02:14:44;;;;;;;3.33;1.20;;;17.80;87.60;;;;;;5075220;28;20381;-80
2021/06/30 02:17:10;;;;;;;3.45;1.10;;;17.80;87.90;;;;;;5075221;28;20025;-80
2021/06/30 02:19:36;;;;;;;2.72;1.08;;;17.70;87.80;;;;;;5074143;28;20028;-80
2021/06/30 02:22:01;;;;;;;6.05;1.40;;;17.70;87.80;;;;;;5071940;28;20531;-80
2021/06/30 02:24:27;;;;;;;2.25;1.20;;;17.70;87.90;;;;;;5055096;28;20064;-80
2021/06/30 02:26:52;;;;;;;1.92;1.45;;;17.60;87.90;;;;;;5037048;28;20115;-80
2021/06/30 02:29:18;;;;;;;2.22;1.40;;;17.50;87.90;;;;;;5037174;28;20482;-80
2021/06/30 02:31:44;;;;;;;2.42;1.17;;;17.50;88.00;;;;;;5054895;28;20021;-80
2021/06/30 02:34:09;;;;;;;6.97;1.55;;;17.40;88.10;;;;;;5037019;28;20029;-80
2021/06/30 02:36:35;;;;;;;2.28;1.25;;;17.50;88.30;;;;;;5055042;28;20367;-80
2021/06/30 02:39:03;;;;;;;3.67;1.40;;;17.40;88.40;;;;;;5073714;28;20044;-80
2021/06/30 02:41:29;;;;;;;2.53;1.40;;;17.40;88.50;;;;;;5074441;28;20481;-80
2021/06/30 02:43:55;;;;;;;1.63;1.30;;;17.40;88.40;;;;;;5073327;28;20040;-80
2021/06/30 02:46:20;;;;;;;4.93;1.10;;;17.40;88.40;;;;;;5053625;28;20024;-80
2021/06/30 02:48:46;;;;;;;4.20;1.33;;;17.40;88.50;;;;;;5053273;28;20032;-80
2021/06/30 02:51:13;;;;;;;1.42;1.33;;;17.30;88.70;;;;;;5053487;28;20025;-80
2021/06/30 02:53:38;;;;;;;2.25;1.40;;;17.40;88.60;;;;;;5053088;28;20047;-80
2021/06/30 02:56:04;;;;;;;3.95;1.33;;;17.40;88.70;;;;;;5059284;28;20033;-80
2021/06/30 02:58:30;;;;;;;5.65;1.40;;;17.40;88.50;;;;;;5074317;28;20052;-80
2021/06/30 03:00:56;;;;;;;1.35;1.25;;;17.50;88.50;;;;;;5071730;28;20032;-80
2021/06/30 03:03:21;;;;;;;1.20;1.10;;;17.40;88.30;;;;;;5081050;28;20043;-80
2021/06/30 03:05:47;;;;;;;2.25;1.35;;;17.40;89.10;;;;;;5094416;28;20024;-80
2021/06/30 03:08:12;;;;;;;1.40;1.30;;;17.30;88.50;;;;;;5093030;28;20043;-80
2021/06/30 03:10:38;;;;;;;2.78;1.30;;;17.30;88.40;;;;;;5094590;28;20469;-80
2021/06/30 03:13:04;;;;;;;7.88;1.35;;;17.30;88.40;;;;;;5093339;28;20032;-80
2021/06/30 03:15:29;;;;;;;2.97;1.25;;;17.30;88.50;;;;;;5094289;28;20030;-80
2021/06/30 03:17:55;;;;;;;1.20;1.02;;;17.20;88.50;;;;;;5094283;28;20111;-80
2021/06/30 03:20:20;;;;;;;3.42;1.80;;;17.20;88.50;;;;;;5080183;28;20119;-80
2021/06/30 03:22:46;;;;;;;6.40;1.30;;;17.20;88.70;;;;;;5074269;28;20064;-80
2021/06/30 03:25:13;;;;;;;1.30;1.20;;;17.20;88.80;;;;;;5072644;28;20029;-80
2021/06/30 03:27:39;;;;;;;3.97;1.50;;;17.20;89.10;;;;;;5073798;28;20462;-81
2021/06/30 03:30:07;;;;;;;3.95;1.30;;;17.20;89.00;;;;;;5072577;28;20044;-80
2021/06/30 03:32:33;;;;;;;2.63;1.65;;;17.20;89.00;;;;;;5073684;28;20023;-81
2021/06/30 03:34:58;;;;;;;3.33;1.38;;;17.20;88.90;;;;;;5059775;28;20466;-80
2021/06/30 03:37:24;;;;;;;2.38;1.50;;;17.20;88.70;;;;;;5053755;28;20108;-80
2021/06/30 03:39:50;;;;;;;2.17;1.35;;;17.20;88.60;;;;;;5054935;28;20032;-80
2021/06/30 03:42:16;;;;;;;2.30;1.70;;;17.20;88.70;;;;;;5059125;28;20408;-81
2021/06/30 03:44:42;;;;;;;1.35;1.25;;;17.20;88.70;;;;;;5063396;28;20036;-80
2021/06/30 03:47:07;;;;;;;2.03;1.55;;;17.30;88.80;;;;;;5070064;28;20036;-81
2021/06/30 03:49:33;;;;;;;4.38;1.50;;;17.20;88.70;;;;;;5063487;28;20661;-80
2021/06/30 03:51:59;;;;;;;4.28;1.27;;;17.20;88.70;;;;;;5062867;28;20039;-80
2021/06/30 03:54:25;;;;;;;2.55;1.38;;;17.20;88.80;;;;;;5065568;28;20044;-81
2021/06/30 03:56:51;;;;;;;1.55;1.40;;;17.20;88.80;;;;;;5060863;28;20385;-81
2021/06/30 03:59:17;;;;;;;4.13;1.50;;;17.20;88.80;;;;;;5060390;28;20063;-81
2021/06/30 04:01:43;;;;;;;2.47;1.42;;;17.20;88.90;;;;;;5059216;28;20052;-81
2021/06/30 04:04:12;;;;;;;3.28;1.63;;;17.30;88.80;;;;;;5059955;28;20035;-81
2021/06/30 04:06:38;;;;;;;;;;;17.30;88.80;;;;;;5062895;28;20116;-80
2021/06/30 04:09:04;;;;;;;1.58;1.40;;;17.20;88.40;;;;;;5052935;28;20517;-80
2021/06/30 04:11:30;;;;;;;1.88;1.50;;;17.20;88.80;;;;;;5053697;28;20083;-81
2021/06/30 04:13:55;;;;;;;2.88;1.20;;;17.20;88.80;;;;;;5064140;28;20473;-80
2021/06/30 04:16:21;;;;;;;1.80;1.45;;;17.20;88.80;;;;;;5066949;28;20035;-81
2021/06/30 04:18:47;;;;;;;1.85;1.70;;;17.20;88.80;;;;;;5059187;28;20079;-81
2021/06/30 04:21:13;;;;;;;3.03;1.80;;;17.20;88.70;;;;;;5073077;28;20077;-80
2021/06/30 04:23:38;;;;;;;1.65;1.55;;;17.20;88.60;;;;;;5072564;28;20028;-80
2021/06/30 04:26:04;;;;;;;1.73;1.63;;;17.10;88.50;;;;;;5063848;28;20067;-80
2021/06/30 04:28:31;;;;;;;2.00;1.70;;;17.20;88.80;;;;;;5056402;28;20037;-80
2021/06/30 04:30:56;;;;;;;4.40;1.70;;;17.20;88.90;;;;;;5056824;28;20047;-80
2021/06/30 04:33:22;;;;;;;1.98;1.77;;;17.20;88.90;;;;;;5070954;28;20029;-80
2021/06/30 04:35:48;;;;;;;2.00;1.80;;;17.20;88.80;;;;;;5071974;28;20105;-80
2021/06/30 04:38:14;;;;;;;1.63;1.45;;;17.20;88.60;;;;;;5070058;28;20037;-80
2021/06/30 04:40:39;;;;;;;2.05;1.83;;;17.20;88.60;;;;;;5071510;28;20024;-80
2021/06/30 04:43:05;;;;;;;2.03;1.80;;;17.20;88.70;;;;;;5065109;28;20414;-80
2021/06/30 04:45:31;;;;;;;3.65;2.20;;;17.20;88.80;;;;;;5059880;28;20133;-80
2021/06/30 04:47:56;;;;;;;2.88;2.25;;;17.10;88.90;;;;;;5051287;28;20028;-80
2021/06/30 04:50:22;;;;;;;4.63;2.30;;;17.10;88.80;;;;;;5066020;28;20025;-81
2021/06/30 04:52:48;;;;;;;2.38;2.17;;;17.10;88.90;;;;;;5067530;28;20029;-81
2021/06/30 04:55:13;;;;;;;3.25;1.90;;;17.10;89.10;;;;;;5054896;28;20485;-80
2021/06/30 04:57:39;;;;;;;4.05;2.15;;;17.00;89.20;;;;;;5055117;28;20041;-80
2021/06/30 05:00:07;;;;;;;3.63;2.25;;;17.00;89.20;;;;;;5056986;28;20056;-80
2021/06/30 05:02:32;;;;;;;2.42;2.33;;;17.00;89.40;;;;;;5065315;28;20406;-80
2021/06/30 05:04:58;;;;;;;2.70;2.50;;;17.10;89.40;;;;;;5083823;28;20116;-80
2021/06/30 05:07:24;;;;;;;4.57;1.98;;;17.10;89.30;;;;;;5066381;28;20033;-80
2021/06/30 05:09:50;;;;;;;2.33;2.13;;;17.10;89.20;;;;;;5054534;28;20509;-80
2021/06/30 05:12:15;;;;;;;2.05;1.95;;;17.10;89.10;;;;;;5052426;28;20527;-80
2021/06/30 05:14:41;;;;;;;2.38;2.20;;;17.10;89.00;;;;;;5054224;28;20033;-81
2021/06/30 05:17:07;;;;;;;4.80;2.20;;;17.10;89.20;;;;;;5039904;28;20025;-80
2021/06/30 05:19:32;;;;;;;2.08;1.70;;;17.10;89.30;;;;;;5075986;28;20043;-81
2021/06/30 05:21:58;;;;;;;3.08;1.67;;;17.10;89.30;;;;;;5073267;28;20028;-80
2021/06/30 05:24:24;;;;;;;1.80;1.70;;;17.10;89.20;;;;;;5062061;28;20024;-80
2021/06/30 05:26:50;;;;;;;2.65;2.20;;;17.10;89.10;;;;;;5072826;28;20048;-80
2021/06/30 05:29:16;;;;;;;2.95;1.80;;;17.10;88.90;;;;;;5069784;28;20485;-81
2021/06/30 05:31:42;;;;;;;3.30;1.83;;;17.10;89.00;;;;;;5075641;28;20040;-80
2021/06/30 05:34:07;;;;;;;2.45;2.00;;;17.10;89.00;;;;;;5075417;28;20440;-81
2021/06/30 05:36:33;;;;;;;1.90;1.80;;;17.10;89.00;;;;;;5066885;28;20032;-81
2021/06/30 05:38:59;;;;;;;2.15;1.55;;;17.10;89.10;;;;;;5056794;28;20039;-81
2021/06/30 05:41:25;;;;;;;1.70;1.60;;;17.10;89.00;;;;;;5057163;28;20064;-81
2021/06/30 05:43:50;;;;;;;2.97;1.70;;;17.20;89.00;;;;;;5057961;28;20048;-81
2021/06/30 05:46:19;;;;;;;4.15;1.73;;;17.20;89.10;;;;;;5054095;28;20098;-81
2021/06/30 05:48:45;;;;;;;3.65;1.90;;;17.20;89.10;;;;;;5053861;28;20037;-81
2021/06/30 05:51:12;;;;;;;2.42;1.65;;;17.20;88.80;;;;;;5055512;28;20029;-81
2021/06/30 05:53:38;;;;;;;1.60;1.50;;;17.20;88.70;;;;;;5075145;28;20055;-80
2021/06/30 05:56:04;;;;;;;2.55;1.60;;;17.30;88.90;;;;;;5075874;28;20060;-81
2021/06/30 05:58:30;;;;;;;2.03;1.83;;;17.30;88.70;;;;;;5075679;28;20024;-81
2021/06/30 06:00:56;;;;;;;2.55;2.10;;;17.20;88.70;;;;;;5058574;28;20029;-81
2021/06/30 06:03:21;;;;;;;3.15;2.00;;;17.20;88.70;;;;;;5055774;28;20090;-81
2021/06/30 06:05:47;;;;;;;2.80;1.60;;;17.20;88.90;;;;;;5082626;28;20039;-81
2021/06/30 06:08:12;;;;;;;2.38;1.80;;;17.10;89.00;;;;;;5074120;28;20482;-81
2021/06/30 06:10:38;;;;;;;3.38;2.00;;;17.20;89.10;;;;;;5074873;28;20036;-80
2021/06/30 06:13:04;;;;;;;2.30;1.95;;;17.20;89.00;;;;;;5077532;28;20081;-81
2021/06/30 06:15:29;;;;;;;4.53;1.90;;;17.20;89.00;;;;;;5072289;28;20468;-81
2021/06/30 06:17:55;;;;;;;2.67;1.92;;;17.20;89.10;;;;;;5095819;28;20024;-81
2021/06/30 06:20:21;;;;;;;1.85;1.70;;;17.30;89.10;;;;;;5095378;28;20059;-81
2021/06/30 06:22:46;;;;;;;3.05;1.75;;;17.30;89.20;;;;;;5090142;28;20074;-81
2021/06/30 06:25:12;;;;;;;2.40;1.90;;;17.30;88.90;;;;;;5067137;28;20025;-82
2021/06/30 06:27:38;;;;;;;1.40;1.30;;;17.20;88.90;;;;;;5071230;28;20393;-81
2021/06/30 06:30:07;;;;;;;1.50;1.40;;;17.20;89.10;;;;;;5074503;28;20535;-81
2021/06/30 06:32:32;;;;;;;1.73;1.63;;;17.30;89.10;;;;;;5073294;28;20029;-81
2021/06/30 06:34:58;;;;;;;1.50;1.40;;;17.30;89.00;;;;;;5073325;28;20024;-81
2021/06/30 06:37:24;;;;;;;2.00;1.77;;;17.30;89.00;;;;;;5074551;28;20082;-81
2021/06/30 06:39:49;;;;;;;1.70;1.38;;;17.30;88.90;;;;;;5056639;28;20032;-81
2021/06/30 06:42:15;;;;;;;1.70;1.60;;;17.40;89.00;;;;;;5074370;28;20115;-81
2021/06/30 06:44:42;;;;;;;3.40;1.95;;;17.40;89.20;;;;;;5063239;28;20094;-81
2021/06/30 06:47:08;;;;;;;2.90;2.33;;;17.40;89.20;;;;;;5054478;28;20035;-81
2021/06/30 06:49:33;;;;;;;1.83;1.73;;;17.40;89.10;;;;;;5054299;28;20095;-81
2021/06/30 06:52:02;;;;;;;3.20;1.75;;;17.40;89.10;;;;;;5057487;28;20055;-81
2021/06/30 06:54:28;;;;;;;3.83;2.20;;;17.40;88.90;;;;;;5085246;28;20048;-82
2021/06/30 06:56:53;;;;;;;2.60;2.40;;;17.40;88.80;;;;;;5074299;28;20040;-81
2021/06/30 06:59:19;;;;;;;2.20;2.10;;;17.40;88.80;;;;;;5063932;28;20029;-81
2021/06/30 07:01:45;;;;;;;2.55;2.30;;;17.40;88.70;;;;;;5054195;28;20112;-81
2021/06/30 07:04:10;;;;;;;3.65;2.42;;;17.40;88.70;;;;;;5086467;28;20111;-81
2021/06/30 07:06:36;;;;;;;3.83;2.70;;;17.40;88.80;;;;;;5091033;28;20432;-82
2021/06/30 07:09:02;;;;;;;3.38;2.30;;;17.40;88.90;;;;;;5054185;28;20041;-81
2021/06/30 07:11:28;;;;;;;3.08;2.88;;;17.40;88.90;;;;;;5073812;28;20079;-82
2021/06/30 07:13:53;;;;;;;3.38;2.55;;;17.40;88.80;;;;;;5072983;28;20036;-82
2021/06/30 07:16:19;;;;;;;3.10;2.80;;;17.40;88.80;;;;;;5072327;28;20126;-81
2021/06/30 07:18:45;;;;;;;3.08;2.78;;;17.40;88.80;;;;;;5072852;28;20397;-81
2021/06/30 07:21:11;;;;;;;3.22;2.92;;;17.40;88.70;;;;;;5054482;28;20028;-81
2021/06/30 07:23:37;;;;;;;4.28;2.80;;;17.40;88.70;;;;;;5071343;28;20100;-82
2021/06/30 07:26:03;;;;;;;2.97;2.65;;;17.40;88.70;;;;;;5071994;28;20024;-81
2021/06/30 07:28:29;;;;;;;3.25;2.95;;;17.40;88.90;;;;;;5082072;28;20032;-82
2021/06/30 07:30:55;;;;;;;3.33;2.80;;;17.40;88.70;;;;;;5073730;28;20115;-82
2021/06/30 07:33:21;;;;;;;3.05;2.65;;;17.40;88.60;;;;;;5062381;28;20071;-82
2021/06/30 07:35:47;;;;;;;3.17;2.97;;;17.50;88.80;;;;;;5067905;28;20025;-81
2021/06/30 07:38:13;;;;;;;3.90;2.35;;;17.50;88.70;;;;;;5085933;28;20023;-81
2021/06/30 07:40:38;;;;;;;2.10;2.00;;;17.50;88.50;;;;;;5075624;28;20123;-81
2021/06/30 07:43:05;;;;;;;4.70;2.47;;;17.70;88.40;;;;;;5093888;28;20028;-81
2021/06/30 07:45:31;;;;;;;4.03;3.15;;;17.70;88.10;;;;;;5093896;28;20055;-81
2021/06/30 07:47:57;;;;;;;4.05;2.85;;;17.70;88.00;;;;;;5093490;28;20380;-81
2021/06/30 07:50:23;;;;;;;3.28;2.47;;;17.80;88.10;;;;;;5057305;28;20029;-81
2021/06/30 07:52:49;;;;;;;5.45;2.50;;;17.80;88.10;;;;;;5053526;28;20048;-81
2021/06/30 07:55:16;;;;;;;3.10;2.80;;;17.80;88.00;;;;;;5052063;28;20486;-81
2021/06/30 07:57:41;;;;;;;4.15;2.90;;;17.80;87.90;;;;;;5053303;28;20021;-80
2021/06/30 08:00:08;;;;;;;5.20;3.45;;;17.70;88.00;;;;;;5053291;28;20545;-81
2021/06/30 08:02:33;;;;;;;4.43;4.03;;;17.70;88.10;;;;;;5053576;28;20386;-81
2021/06/30 08:05:00;;;;;;;4.15;3.85;;;17.80;88.10;;;;;;5057378;28;20111;-81
2021/06/30 08:07:26;;;;;;;4.55;3.53;;;17.70;88.10;;;;;;5055618;28;20047;-81
2021/06/30 08:09:51;;;;;;;3.65;3.20;;;17.70;88.10;;;;;;5073233;28;20481;-80
2021/06/30 08:12:17;;;;;;;3.80;3.50;;;17.70;88.00;;;;;;5073413;28;20046;-81
2021/06/30 08:14:43;;;;;;;5.13;3.58;;;17.70;88.20;;;;;;5071827;28;20035;-81
2021/06/30 08:17:09;;;;;;;3.17;2.97;;;17.70;88.10;;;;;;5073390;28;20027;-81
2021/06/30 08:19:34;;;;;;;3.10;2.90;;;17.80;88.10;;;;;;5073399;28;20451;-81
2021/06/30 08:22:00;;;;;;;5.18;3.35;;;17.80;88.00;;;;;;5073338;28;20119;-80
2021/06/30 08:24:26;;;;;;;3.83;3.53;;;17.90;88.00;;;;;;5073190;28;20073;-81
2021/06/30 08:26:52;;;;;;;3.78;3.47;;;18.00;88.00;;;;;;5073505;28;20105;-80
2021/06/30 08:29:20;;;;;;;3.30;3.10;;;18.00;87.70;;;;;;5073069;28;20025;-79
2021/06/30 08:31:49;;;;;;;3.30;3.00;;;18.00;87.70;;;;;;5073038;28;20021;-80
2021/06/30 08:34:14;;;;;;;6.22;3.38;;;18.10;87.60;;;;;;5073144;28;20107;-80
2021/06/30 08:36:40;;;;;;;3.55;3.25;;;18.10;87.40;;;;;;5073303;28;20108;-82
2021/06/30 08:39:08;;;;;;;3.35;3.03;;;18.10;87.40;;;;;;5073112;28;20075;-83
2021/06/30 08:41:33;;;;;;;5.00;2.87;;;18.10;87.10;;;;;;5072943;28;20028;-84
2021/06/30 08:43:59;;;;;;;6.82;3.40;;;18.20;87.10;;;;;;5073127;28;20275;-81
2021/06/30 08:46:26;;;;;;;6.20;3.35;;;18.20;86.80;;;;;;5073047;28;20529;-83
2021/06/30 08:48:57;;;;;;;5.30;3.35;;;18.20;86.50;;;;;;5057202;28;20028;-82
2021/06/30 08:51:27;;;;;;;4.95;3.33;;;18.20;86.50;;;;;;5075396;28;20495;-82
2021/06/30 08:53:55;;;;;;;4.22;3.15;;;18.20;86.40;;;;;;5075258;28;20062;-83
2021/06/30 08:56:30;;;;;;;4.10;3.40;;;18.20;86.50;;;;;;5075624;28;20035;-83
2021/06/30 08:58:58;;;;;;;4.00;3.60;;;18.30;86.10;;;;;;5075259;28;20035;-84
2021/06/30 09:01:25;;;;;;;5.10;3.83;;;18.40;86.10;;;;;;5062173;28;20556;-82
2021/06/30 09:03:53;;;;;;;3.70;3.40;;;18.50;86.20;;;;;;5038522;28;20064;-83
2021/06/30 09:06:19;;;;;;;4.82;3.00;;;18.50;86.20;;;;;;5056327;28;20024;-84
2021/06/30 09:08:48;;;;;;;3.92;3.53;;;18.40;85.90;;;;;;5063864;28;20041;-84
2021/06/30 09:11:19;;;;;;;2.90;2.70;;;18.50;86.40;;;;;;5076417;28;20028;-84
2021/06/30 09:13:45;;;;;;;2.83;2.63;;;18.50;86.60;;;;;;5076433;28;20381;-84
2021/06/30 09:16:11;;;;;;;3.45;3.15;;;18.50;86.20;;;;;;5075028;28;20115;-85
2021/06/30 09:18:40;;;;;;;3.55;3.25;;;18.50;86.30;;;;;;5076403;28;20076;-83
2021/06/30 09:21:19;;;;;;;4.93;3.80;;;18.50;85.90;;;;;;5076511;28;20028;-84
2021/06/30 09:24:10;;;;;;;3.88;3.58;;;18.50;86.10;;;;;;5068049;28;20037;-85
2021/06/30 09:26:45;;;;;;;3.65;3.35;;;18.50;86.00;;;;;;5056389;28;20021;-85
2021/06/30 09:29:12;;;;;;;4.75;3.83;;;18.60;85.90;;;;;;5067185;28;20024;-86
2021/06/30 09:31:42;;;;;;;6.10;4.60;;;18.60;85.80;;;;;;5076309;28;20024;-84
2021/06/30 09:34:08;;;;;;;5.25;3.88;;;18.70;85.90;;;;;;5076039;28;20021;-84
2021/06/30 09:36:53;;;;;;;4.68;4.07;;;18.80;85.70;;;;;;5074798;28;20119;-84
2021/06/30 09:39:21;;;;;;;3.92;3.53;;;18.90;85.10;;;;;;5076221;28;20024;-84
2021/06/30 09:41:47;;;;;;;4.50;4.10;;;18.80;84.80;;;;;;5074639;28;20036;-84
2021/06/30 09:44:22;;;;;;;5.22;4.10;;;18.80;84.70;;;;;;5074412;28;20033;-84
2021/06/30 09:46:52;;;;;;;5.35;3.67;;;18.80;84.70;;;;;;5075715;28;20043;-84
2021/06/30 09:49:20;;;;;;;5.20;4.70;;;18.70;84.80;;;;;;5074197;28;20419;-83
2021/06/30 09:52:01;;;;;;;6.13;4.00;;;18.70;84.90;;;;;;5057315;28;20028;-81
2021/06/30 09:54:31;;;;;;;5.10;4.68;;;18.70;84.80;;;;;;5055154;28;20033;-84
2021/06/30 09:57:08;;;;;;;5.90;4.20;;;18.70;85.00;;;;;;5055489;28;20021;-83
2021/06/30 09:59:37;;;;;;;5.15;4.15;;;18.80;85.00;;;;;;5053542;28;20425;-82
2021/06/30 10:02:08;;;;;;;4.60;4.20;;;18.90;84.50;;;;;;5055454;28;20151;-83
2021/06/30 10:04:46;;;;;;;4.68;4.20;;;18.90;84.00;;;;;;5055546;28;20035;-83
2021/06/30 10:07:13;;;;;;;5.82;4.30;;;18.90;84.70;;;;;;5055353;28;20025;-84
2021/06/30 10:09:56;;;;;;;5.72;4.57;;;18.90;85.00;;;;;;5055120;28;20099;-83
2021/06/30 10:12:27;;;;;;;4.57;4.18;;;18.90;84.40;;;;;;5053651;28;20389;-85
2021/06/30 10:14:54;;;;;;;6.40;5.35;;;18.90;84.70;;;;;;5057976;28;20016;-81
2021/06/30 10:17:22;;;;;;;5.25;4.75;;;19.30;84.50;;;;;;5074969;28;20032;-82
2021/06/30 10:19:49;;;;;;;6.95;5.07;;;19.60;83.30;;;;;;5074910;28;20028;-83
2021/06/30 10:22:15;;;;;;;4.13;3.63;;;19.60;82.40;;;;;;5074673;28;20067;-83
2021/06/30 10:24:42;;;;;;;6.65;3.80;;;19.40;82.40;;;;;;5073771;28;20028;-80
2021/06/30 10:27:12;;;;;;;3.85;3.55;;;19.20;82.70;;;;;;5071013;28;20029;-81
2021/06/30 10:29:52;;;;;;;4.30;3.90;;;19.10;83.10;;;;;;5072198;28;20077;-84
2021/06/30 10:32:17;;;;;;;4.45;3.63;;;18.90;83.10;;;;;;5080090;28;20035;-82
2021/06/30 10:34:46;;;;;;;4.75;3.75;;;18.80;83.30;;;;;;5074610;28;20107;-83
2021/06/30 10:37:28;;;;;;;6.35;5.32;;;18.80;83.50;;;;;;5088197;28;20024;-82
2021/06/30 10:39:57;;;;;;;6.03;5.38;;;18.90;84.10;;;;;;5094273;28;20038;-83
2021/06/30 10:42:37;;;;;;;4.38;3.80;;;18.90;84.30;;;;;;5094417;28;20040;-82
2021/06/30 10:45:21;;;;;;;4.78;4.30;;;18.90;83.90;;;;;;5095019;28;20024;-83
2021/06/30 10:48:06;;;;;;;4.30;3.90;;;18.90;84.30;;;;;;5081060;28;20481;-82
2021/06/30 10:50:45;;;;;;;4.57;3.70;;;18.80;84.00;;;;;;5073405;28;20031;-82
2021/06/30 10:53:25;;;;;;;6.03;3.60;;;18.80;84.30;;;;;;5067450;28;20033;-82
2021/06/30 10:55:52;;;;;;;3.85;3.15;;;18.70;84.40;;;;;;5054344;28;20394;-81
2021/06/30 10:58:26;;;;;;;4.60;3.45;;;18.70;84.50;;;;;;5054409;28;20025;-81
2021/06/30 11:00:57;;;;;;;5.03;3.33;;;18.60;84.70;;;;;;5054301;28;20378;-81
2021/06/30 11:03:29;;;;;;;4.07;3.67;;;18.50;84.80;;;;;;5053044;28;20021;-82
2021/06/30 11:06:20;;;;;;;4.40;3.70;;;18.40;84.70;;;;;;5054305;28;20079;-82
2021/06/30 11:08:58;;;;;;;4.53;3.88;;;18.40;84.30;;;;;;5053840;28;20128;-81
2021/06/30 11:11:27;;;;;;;5.18;4.63;;;18.50;84.70;;;;;;5068575;28;20052;-81
2021/06/30 11:14:09;;;;;;;5.85;4.57;;;18.60;84.70;;;;;;5094199;28;20016;-82
2021/06/30 11:16:37;;;;;;;6.25;4.90;;;18.80;84.50;;;;;;5094204;28;20016;-81
2021/06/30 11:19:08;;;;;;;5.40;4.90;;;18.90;84.10;;;;;;5094305;28;20075;-81
2021/06/30 11:21:51;;;;;;;3.85;3.55;;;18.90;84.10;;;;;;5094255;28;20059;-81
2021/06/30 11:24:35;;;;;;;4.93;4.43;;;18.80;84.00;;;;;;5092424;28;20027;-81
2021/06/30 11:27:21;;;;;;;4.18;3.78;;;18.80;84.40;;;;;;5086421;28;20074;-82
2021/06/30 11:30:00;;;;;;;4.20;3.80;;;18.70;84.00;;;;;;5073978;28;20020;-81
2021/06/30 11:32:32;;;;;;;4.00;3.60;;;18.70;83.70;;;;;;5073733;28;20020;-81
2021/06/30 11:35:03;;;;;;;5.60;4.57;;;18.60;84.20;;;;;;5069419;28;20024;-82
2021/06/30 11:37:29;;;;;;;5.25;4.75;;;18.60;84.30;;;;;;5052342;28;20510;-80
2021/06/30 11:40:03;;;;;;;4.90;4.05;;;18.50;84.60;;;;;;5053640;28;20064;-82
2021/06/30 11:42:43;;;;;;;7.18;4.80;;;18.50;84.40;;;;;;5052193;28;20056;-82
2021/06/30 11:45:23;;;;;;;4.07;3.70;;;18.50;84.50;;;;;;5058021;28;20031;-82
2021/06/30 11:47:51;;;;;;;4.72;4.25;;;18.70;84.30;;;;;;5072323;28;20058;-82
2021/06/30 11:50:18;;;;;;;5.35;4.85;;;18.90;84.00;;;;;;5081419;28;20385;-83
2021/06/30 11:52:48;;;;;;;6.68;4.93;;;19.10;83.90;;;;;;5073613;28;20495;-81
2021/06/30 11:55:15;;;;;;;6.28;4.72;;;19.20;83.90;;;;;;5073355;28;20050;-80
2021/06/30 11:57:55;;;;;;;6.53;4.10;;;19.20;83.60;;;;;;5072285;28;20420;-80
2021/06/30 12:00:22;;;;;;;5.18;4.65;;;19.30;83.30;;;;;;5067373;28;20017;-80
2021/06/30 12:02:51;;;;;;;4.88;4.35;;;19.40;83.10;;;;;;5052975;28;20490;-80
2021/06/30 12:05:17;;;;;;;6.07;4.70;;;19.40;82.90;;;;;;5060463;28;20028;-80
2021/06/30 12:07:45;;;;;;;6.35;4.88;;;19.40;82.60;;;;;;5072570;28;20024;-80
2021/06/30 12:10:12;;;;;;;4.82;4.35;;;19.40;82.50;;;;;;5072008;28;20044;-80
2021/06/30 12:12:38;;;;;;;5.35;4.85;;;19.30;82.30;;;;;;5073371;28;20106;-80
2021/06/30 12:15:06;;;;;;;4.63;4.20;;;19.30;82.10;;;;;;5072360;28;20051;-79
2021/06/30 12:17:31;;;;;;;4.65;3.95;;;19.30;82.20;;;;;;5073624;28;20047;-80
2021/06/30 12:20:01;;;;;;;4.05;3.63;;;19.50;82.50;;;;;;5073211;28;20028;-80
2021/06/30 12:22:38;;;;;;;4.53;4.13;;;19.70;82.10;;;;;;5055613;28;20028;-80
2021/06/30 12:25:06;;;;;;;4.03;3.72;;;19.90;81.70;;;;;;5057544;28;20032;-80
2021/06/30 12:27:43;;;;;;;4.20;3.78;;;20.00;80.60;;;;;;5057817;28;20369;-80
2021/06/30 12:30:13;;;;;;;3.83;3.15;;;20.00;79.90;;;;;;5055947;28;20389;-80
2021/06/30 12:32:48;;;;;;;3.58;3.28;;;19.80;80.30;;;;;;5057698;28;20025;-80
2021/06/30 12:35:16;;;;;;;3.75;3.45;;;19.70;80.90;;;;;;5057288;28;20096;-80
2021/06/30 12:37:45;;;;;;;3.92;3.58;;;19.50;81.60;;;;;;5058875;28;20466;-80
2021/06/30 12:40:16;;;;;;;3.33;3.03;;;19.50;81.90;;;;;;5077490;28;20086;-80
2021/06/30 12:42:47;;;;;;;3.88;3.58;;;19.60;81.60;;;;;;5085603;28;20032;-80
2021/06/30 12:45:16;;;;;;;6.45;3.67;;;19.70;81.80;;;;;;5055664;28;20032;-79
2021/06/30 12:47:57;;;;;;;3.40;3.10;;;19.90;81.70;;;;;;5056909;28;20029;-79
2021/06/30 12:50:47;;;;;;;3.03;2.83;;;20.00;80.80;;;;;;5071932;28;20036;-80
2021/06/30 12:53:18;;;;;;;2.95;2.75;;;20.10;80.00;;;;;;5076483;28;20384;-80